sensor_id;sensor_type;location;lat;lon;timestamp;temperature;humidity
67862;DHT22;54665;51.462;6.698;2022-12-18T00:01:35;-6.11;94.35
67862;DHT22;54665;51.462;6.698;2022-12-18T00:04:02;-6.19;94.38
67862;DHT22;54665;51.462;6.698;2022-12-18T00:06:29;-6.25;94.41
67862;DHT22;54665;51.462;6.698;2022-12-18T00:08:56;-6.29;94.31
67862;DHT22;54665;51.462;6.698;2022-12-18T00:11:24;-6.37;94.49
67862;DHT22;54665;51.462;6.698;2022-12-18T00:13:50;-6.42;94.54
67862;DHT22;54665;51.462;6.698;2022-12-18T00:16:18;-6.36;94.59
67862;DHT22;54665;51.462;6.698;2022-12-18T00:18:48;-6.23;94.83
67862;DHT22;54665;51.462;6.698;2022-12-18T00:21:14;-6.23;94.70
67862;DHT22;54665;51.462;6.698;2022-12-18T00:23:41;-6.28;94.49
67862;DHT22;54665;51.462;6.698;2022-12-18T00:26:13;-6.28;94.49
67862;DHT22;54665;51.462;6.698;2022-12-18T00:28:40;-6.35;94.37
67862;DHT22;54665;51.462;6.698;2022-12-18T00:31:18;-6.36;94.47
67862;DHT22;54665;51.462;6.698;2022-12-18T00:33:44;-6.39;94.58
67862;DHT22;54665;51.462;6.698;2022-12-18T00:36:12;-6.47;94.52
67862;DHT22;54665;51.462;6.698;2022-12-18T00:38:38;-6.40;94.63
67862;DHT22;54665;51.462;6.698;2022-12-18T00:41:05;-6.37;94.69
67862;DHT22;54665;51.462;6.698;2022-12-18T00:43:30;-6.29;94.65
67862;DHT22;54665;51.462;6.698;2022-12-18T00:45:59;-6.25;94.68
67862;DHT22;54665;51.462;6.698;2022-12-18T00:48:24;-6.23;94.64
67862;DHT22;54665;51.462;6.698;2022-12-18T00:50:50;-6.18;94.50
67862;DHT22;54665;51.462;6.698;2022-12-18T00:53:19;-6.15;94.36
67862;DHT22;54665;51.462;6.698;2022-12-18T00:55:45;-6.15;94.33
67862;DHT22;54665;51.462;6.698;2022-12-18T00:58:12;-6.02;94.44
67862;DHT22;54665;51.462;6.698;2022-12-18T01:00:38;-6.01;94.39
67862;DHT22;54665;51.462;6.698;2022-12-18T01:03:04;-6.04;94.27
67862;DHT22;54665;51.462;6.698;2022-12-18T01:05:30;-6.12;94.02
67862;DHT22;54665;51.462;6.698;2022-12-18T01:07:56;-6.22;93.96
67862;DHT22;54665;51.462;6.698;2022-12-18T01:10:22;-6.28;94.10
67862;DHT22;54665;51.462;6.698;2022-12-18T01:12:48;-6.46;94.01
67862;DHT22;54665;51.462;6.698;2022-12-18T01:15:14;-6.56;94.13
67862;DHT22;54665;51.462;6.698;2022-12-18T01:17:44;-6.63;94.27
67862;DHT22;54665;51.462;6.698;2022-12-18T01:20:11;-6.69;94.40
67862;DHT22;54665;51.462;6.698;2022-12-18T01:22:37;-6.76;94.45
67862;DHT22;54665;51.462;6.698;2022-12-18T01:25:03;-6.86;94.52
67862;DHT22;54665;51.462;6.698;2022-12-18T01:27:29;-6.90;94.65
67862;DHT22;54665;51.462;6.698;2022-12-18T01:29:55;-7.07;94.44
67862;DHT22;54665;51.462;6.698;2022-12-18T01:32:20;-7.21;94.38
67862;DHT22;54665;51.462;6.698;2022-12-18T01:34:49;-7.25;94.81
67862;DHT22;54665;51.462;6.698;2022-12-18T01:37:14;-7.24;95.15
67862;DHT22;54665;51.462;6.698;2022-12-18T01:39:40;-7.21;95.04
67862;DHT22;54665;51.462;6.698;2022-12-18T01:42:12;-7.08;95.15
67862;DHT22;54665;51.462;6.698;2022-12-18T01:44:58;-6.98;94.99
67862;DHT22;54665;51.462;6.698;2022-12-18T01:47:44;-6.96;95.02
67862;DHT22;54665;51.462;6.698;2022-12-18T01:50:11;-7.09;94.94
67862;DHT22;54665;51.462;6.698;2022-12-18T01:52:38;-7.11;95.05
67862;DHT22;54665;51.462;6.698;2022-12-18T01:55:06;-7.18;95.05
67862;DHT22;54665;51.462;6.698;2022-12-18T01:57:33;-7.17;95.16
67862;DHT22;54665;51.462;6.698;2022-12-18T02:00:03;-7.09;94.95
67862;DHT22;54665;51.462;6.698;2022-12-18T02:02:39;-7.03;94.84
67862;DHT22;54665;51.462;6.698;2022-12-18T02:05:05;-6.94;94.85
67862;DHT22;54665;51.462;6.698;2022-12-18T02:07:45;-6.87;94.64
67862;DHT22;54665;51.462;6.698;2022-12-18T02:10:20;-6.81;94.74
67862;DHT22;54665;51.462;6.698;2022-12-18T02:12:58;-6.76;94.69
67862;DHT22;54665;51.462;6.698;2022-12-18T02:15:50;-6.66;94.61
67862;DHT22;54665;51.462;6.698;2022-12-18T02:18:24;-6.50;94.57
67862;DHT22;54665;51.462;6.698;2022-12-18T02:20:59;-6.40;94.44
67862;DHT22;54665;51.462;6.698;2022-12-18T02:23:35;-6.37;94.26
67862;DHT22;54665;51.462;6.698;2022-12-18T02:26:14;-6.28;94.35
67862;DHT22;54665;51.462;6.698;2022-12-18T02:28:55;-6.30;94.03
67862;DHT22;54665;51.462;6.698;2022-12-18T02:31:25;-6.33;93.89
67862;DHT22;54665;51.462;6.698;2022-12-18T02:33:54;-6.29;94.03
67862;DHT22;54665;51.462;6.698;2022-12-18T02:36:22;-6.18;93.87
67862;DHT22;54665;51.462;6.698;2022-12-18T02:38:49;-6.15;93.83
67862;DHT22;54665;51.462;6.698;2022-12-18T02:41:16;-6.18;93.90
67862;DHT22;54665;51.462;6.698;2022-12-18T02:43:56;-6.09;93.88
67862;DHT22;54665;51.462;6.698;2022-12-18T02:46:40;-6.15;93.76
67862;DHT22;54665;51.462;6.698;2022-12-18T02:49:36;-6.16;93.79
67862;DHT22;54665;51.462;6.698;2022-12-18T03:01:19;-6.19;93.74
67862;DHT22;54665;51.462;6.698;2022-12-18T03:03:52;-6.18;93.65
67862;DHT22;54665;51.462;6.698;2022-12-18T03:06:25;-6.16;93.72
67862;DHT22;54665;51.462;6.698;2022-12-18T03:08:57;-6.09;93.85
67862;DHT22;54665;51.462;6.698;2022-12-18T03:11:25;-6.06;93.72
67862;DHT22;54665;51.462;6.698;2022-12-18T03:14:12;-6.04;93.52
67862;DHT22;54665;51.462;6.698;2022-12-18T03:16:40;-6.04;93.44
67862;DHT22;54665;51.462;6.698;2022-12-18T03:19:11;-6.06;93.45
67862;DHT22;54665;51.462;6.698;2022-12-18T03:21:46;-6.02;93.49
67862;DHT22;54665;51.462;6.698;2022-12-18T03:24:18;-6.04;93.56
67862;DHT22;54665;51.462;6.698;2022-12-18T03:26:50;-6.01;93.46
67862;DHT22;54665;51.462;6.698;2022-12-18T03:29:21;-5.84;93.51
67862;DHT22;54665;51.462;6.698;2022-12-18T03:32:04;-5.74;93.21
67862;DHT22;54665;51.462;6.698;2022-12-18T03:34:33;-5.64;93.19
67862;DHT22;54665;51.462;6.698;2022-12-18T03:37:02;-5.59;93.00
67862;DHT22;54665;51.462;6.698;2022-12-18T03:39:30;-5.50;92.96
67862;DHT22;54665;51.462;6.698;2022-12-18T03:42:15;-5.53;92.72
67862;DHT22;54665;51.462;6.698;2022-12-18T03:45:22;-5.40;93.14
67862;DHT22;54665;51.462;6.698;2022-12-18T03:48:00;-5.19;92.59
67862;DHT22;54665;51.462;6.698;2022-12-18T03:55:49;-5.39;92.53
67862;DHT22;54665;51.462;6.698;2022-12-18T03:58:19;-5.32;92.57
67862;DHT22;54665;51.462;6.698;2022-12-18T04:01:14;-5.19;91.94
67862;DHT22;54665;51.462;6.698;2022-12-18T04:03:42;-5.15;92.11
67862;DHT22;54665;51.462;6.698;2022-12-18T04:06:09;-5.09;91.83
67862;DHT22;54665;51.462;6.698;2022-12-18T04:08:38;-5.03;91.63
67862;DHT22;54665;51.462;6.698;2022-12-18T04:11:06;-5.15;91.68
67862;DHT22;54665;51.462;6.698;2022-12-18T04:13:36;-4.95;91.00
67862;DHT22;54665;51.462;6.698;2022-12-18T04:16:05;-5.01;91.31
67862;DHT22;54665;51.462;6.698;2022-12-18T04:18:31;-4.96;90.85
67862;DHT22;54665;51.462;6.698;2022-12-18T04:20:58;-4.92;91.02
67862;DHT22;54665;51.462;6.698;2022-12-18T04:23:24;-4.95;90.85
67862;DHT22;54665;51.462;6.698;2022-12-18T04:25:51;-5.09;91.17
67862;DHT22;54665;51.462;6.698;2022-12-18T04:28:25;-4.99;90.99
67862;DHT22;54665;51.462;6.698;2022-12-18T04:30:51;-5.03;91.32
67862;DHT22;54665;51.462;6.698;2022-12-18T04:33:16;-5.09;91.28
67862;DHT22;54665;51.462;6.698;2022-12-18T04:35:42;-5.09;91.50
67862;DHT22;54665;51.462;6.698;2022-12-18T04:38:08;-5.15;91.53
67862;DHT22;54665;51.462;6.698;2022-12-18T04:40:36;-5.17;91.58
67862;DHT22;54665;51.462;6.698;2022-12-18T04:43:14;-5.12;91.46
67862;DHT22;54665;51.462;6.698;2022-12-18T04:45:39;-4.99;91.63
67862;DHT22;54665;51.462;6.698;2022-12-18T04:48:05;-4.98;91.24
67862;DHT22;54665;51.462;6.698;2022-12-18T04:50:31;-5.05;91.15
67862;DHT22;54665;51.462;6.698;2022-12-18T04:52:56;-5.05;91.12
67862;DHT22;54665;51.462;6.698;2022-12-18T04:55:22;-5.10;91.32
67862;DHT22;54665;51.462;6.698;2022-12-18T04:57:49;-5.10;91.14
67862;DHT22;54665;51.462;6.698;2022-12-18T05:00:15;-5.02;91.25
67862;DHT22;54665;51.462;6.698;2022-12-18T05:02:40;-5.06;91.16
67862;DHT22;54665;51.462;6.698;2022-12-18T05:05:06;-5.09;91.42
67862;DHT22;54665;51.462;6.698;2022-12-18T05:07:32;-4.99;91.51
67862;DHT22;54665;51.462;6.698;2022-12-18T05:09:57;-5.08;91.64
67862;DHT22;54665;51.462;6.698;2022-12-18T05:12:22;-5.06;91.45
67862;DHT22;54665;51.462;6.698;2022-12-18T05:14:49;-5.10;91.68
67862;DHT22;54665;51.462;6.698;2022-12-18T05:17:14;-5.16;91.79
67862;DHT22;54665;51.462;6.698;2022-12-18T05:19:39;-5.24;91.72
67862;DHT22;54665;51.462;6.698;2022-12-18T05:22:05;-5.37;91.88
67862;DHT22;54665;51.462;6.698;2022-12-18T05:24:30;-5.44;92.02
67862;DHT22;54665;51.462;6.698;2022-12-18T05:26:55;-5.46;92.23
67862;DHT22;54665;51.462;6.698;2022-12-18T05:29:21;-5.50;92.28
67862;DHT22;54665;51.462;6.698;2022-12-18T05:31:46;-5.57;92.38
67862;DHT22;54665;51.462;6.698;2022-12-18T05:34:12;-5.53;92.44
67862;DHT22;54665;51.462;6.698;2022-12-18T05:36:37;-5.50;92.60
67862;DHT22;54665;51.462;6.698;2022-12-18T05:39:04;-5.59;92.65
67862;DHT22;54665;51.462;6.698;2022-12-18T05:41:29;-5.66;92.73
67862;DHT22;54665;51.462;6.698;2022-12-18T05:43:55;-5.71;92.54
67862;DHT22;54665;51.462;6.698;2022-12-18T05:46:20;-5.78;92.66
67862;DHT22;54665;51.462;6.698;2022-12-18T05:48:46;-5.84;92.84
67862;DHT22;54665;51.462;6.698;2022-12-18T05:51:14;-5.84;92.97
67862;DHT22;54665;51.462;6.698;2022-12-18T05:53:41;-5.87;92.97
67862;DHT22;54665;51.462;6.698;2022-12-18T05:56:10;-5.87;93.14
67862;DHT22;54665;51.462;6.698;2022-12-18T05:58:36;-5.98;93.01
67862;DHT22;54665;51.462;6.698;2022-12-18T06:01:17;-6.12;92.97
67862;DHT22;54665;51.462;6.698;2022-12-18T06:03:43;-6.12;93.11
67862;DHT22;54665;51.462;6.698;2022-12-18T06:06:15;-6.12;93.38
67862;DHT22;54665;51.462;6.698;2022-12-18T06:08:41;-6.16;93.34
67862;DHT22;54665;51.462;6.698;2022-12-18T06:11:06;-6.16;93.38
67862;DHT22;54665;51.462;6.698;2022-12-18T06:13:32;-6.12;93.51
67862;DHT22;54665;51.462;6.698;2022-12-18T06:15:57;-6.18;93.38
67862;DHT22;54665;51.462;6.698;2022-12-18T06:18:22;-6.19;93.49
67862;DHT22;54665;51.462;6.698;2022-12-18T06:20:58;-6.22;93.38
67862;DHT22;54665;51.462;6.698;2022-12-18T06:23:24;-6.26;93.36
67862;DHT22;54665;51.462;6.698;2022-12-18T06:25:50;-6.29;93.25
67862;DHT22;54665;51.462;6.698;2022-12-18T06:28:16;-6.26;93.49
67862;DHT22;54665;51.462;6.698;2022-12-18T06:30:45;-6.25;93.38
67862;DHT22;54665;51.462;6.698;2022-12-18T06:33:11;-6.16;93.57
67862;DHT22;54665;51.462;6.698;2022-12-18T06:35:36;-6.09;93.56
67862;DHT22;54665;51.462;6.698;2022-12-18T06:38:02;-6.04;93.41
67862;DHT22;54665;51.462;6.698;2022-12-18T06:40:28;-6.02;93.48
67862;DHT22;54665;51.462;6.698;2022-12-18T06:42:53;-5.87;93.40
67862;DHT22;54665;51.462;6.698;2022-12-18T06:45:19;-5.90;92.97
67862;DHT22;54665;51.462;6.698;2022-12-18T06:47:44;-5.91;92.81
67862;DHT22;54665;51.462;6.698;2022-12-18T06:50:10;-5.88;92.88
67862;DHT22;54665;51.462;6.698;2022-12-18T06:52:35;-5.87;92.82
67862;DHT22;54665;51.462;6.698;2022-12-18T06:55:02;-5.85;92.88
67862;DHT22;54665;51.462;6.698;2022-12-18T06:57:27;-5.80;92.68
67862;DHT22;54665;51.462;6.698;2022-12-18T06:59:53;-5.78;92.66
67862;DHT22;54665;51.462;6.698;2022-12-18T07:02:18;-5.85;92.72
67862;DHT22;54665;51.462;6.698;2022-12-18T07:04:43;-5.91;92.63
67862;DHT22;54665;51.462;6.698;2022-12-18T07:07:09;-6.01;92.58
67862;DHT22;54665;51.462;6.698;2022-12-18T07:09:34;-6.11;92.67
67862;DHT22;54665;51.462;6.698;2022-12-18T07:12:00;-6.15;92.79
67862;DHT22;54665;51.462;6.698;2022-12-18T07:14:25;-6.18;93.03
67862;DHT22;54665;51.462;6.698;2022-12-18T07:16:50;-6.15;93.11
67862;DHT22;54665;51.462;6.698;2022-12-18T07:19:16;-6.12;93.24
67862;DHT22;54665;51.462;6.698;2022-12-18T07:21:41;-6.12;93.34
67862;DHT22;54665;51.462;6.698;2022-12-18T07:24:07;-6.14;93.25
67862;DHT22;54665;51.462;6.698;2022-12-18T07:26:32;-6.22;93.19
67862;DHT22;54665;51.462;6.698;2022-12-18T07:28:58;-6.22;93.32
67862;DHT22;54665;51.462;6.698;2022-12-18T07:31:24;-6.21;93.51
67862;DHT22;54665;51.462;6.698;2022-12-18T07:33:50;-6.22;93.52
67862;DHT22;54665;51.462;6.698;2022-12-18T07:36:16;-6.28;93.46
67862;DHT22;54665;51.462;6.698;2022-12-18T07:38:42;-6.29;93.55
67862;DHT22;54665;51.462;6.698;2022-12-18T07:41:09;-6.19;93.77
67862;DHT22;54665;51.462;6.698;2022-12-18T07:43:36;-6.19;93.42
67862;DHT22;54665;51.462;6.698;2022-12-18T07:46:01;-6.25;93.37
67862;DHT22;54665;51.462;6.698;2022-12-18T07:48:30;-6.18;93.61
67862;DHT22;54665;51.462;6.698;2022-12-18T07:50:59;-5.99;93.50
67862;DHT22;54665;51.462;6.698;2022-12-18T07:53:24;-5.71;93.35
67862;DHT22;54665;51.462;6.698;2022-12-18T07:55:55;-5.51;92.63
67862;DHT22;54665;51.462;6.698;2022-12-18T07:58:21;-5.36;92.11
67862;DHT22;54665;51.462;6.698;2022-12-18T08:00:46;-5.23;91.79
67862;DHT22;54665;51.462;6.698;2022-12-18T08:03:12;-5.02;91.41
67862;DHT22;54665;51.462;6.698;2022-12-18T08:05:37;-4.89;90.97
67862;DHT22;54665;51.462;6.698;2022-12-18T08:08:02;-4.79;89.48
67862;DHT22;54665;51.462;6.698;2022-12-18T08:10:28;-4.81;89.73
67862;DHT22;54665;51.462;6.698;2022-12-18T08:12:53;-4.69;90.14
67862;DHT22;54665;51.462;6.698;2022-12-18T08:15:18;-4.62;89.53
67862;DHT22;54665;51.462;6.698;2022-12-18T08:17:44;-4.47;89.28
67862;DHT22;54665;51.462;6.698;2022-12-18T08:20:09;-4.26;88.41
67862;DHT22;54665;51.462;6.698;2022-12-18T08:22:35;-4.20;88.16
67862;DHT22;54665;51.462;6.698;2022-12-18T08:25:01;-4.17;88.60
67862;DHT22;54665;51.462;6.698;2022-12-18T08:27:26;-4.05;88.19
67862;DHT22;54665;51.462;6.698;2022-12-18T08:29:52;-3.81;87.62
67862;DHT22;54665;51.462;6.698;2022-12-18T08:32:17;-3.66;86.83
67862;DHT22;54665;51.462;6.698;2022-12-18T08:34:45;-3.61;86.53
67862;DHT22;54665;51.462;6.698;2022-12-18T08:37:13;-3.41;86.11
67862;DHT22;54665;51.462;6.698;2022-12-18T08:39:38;-3.30;86.31
67862;DHT22;54665;51.462;6.698;2022-12-18T08:42:04;-3.23;85.77
67862;DHT22;54665;51.462;6.698;2022-12-18T08:44:48;-3.14;85.01
67862;DHT22;54665;51.462;6.698;2022-12-18T08:47:13;-3.13;85.85
67862;DHT22;54665;51.462;6.698;2022-12-18T08:49:38;-3.03;85.59
67862;DHT22;54665;51.462;6.698;2022-12-18T08:52:04;-2.94;84.03
67862;DHT22;54665;51.462;6.698;2022-12-18T08:54:29;-2.92;85.53
67862;DHT22;54665;51.462;6.698;2022-12-18T08:56:55;-2.80;84.23
67862;DHT22;54665;51.462;6.698;2022-12-18T08:59:20;-2.69;84.06
67862;DHT22;54665;51.462;6.698;2022-12-18T09:01:46;-2.63;84.64
67862;DHT22;54665;51.462;6.698;2022-12-18T09:04:12;-2.61;84.24
67862;DHT22;54665;51.462;6.698;2022-12-18T09:06:39;-2.55;83.62
67862;DHT22;54665;51.462;6.698;2022-12-18T09:09:05;-2.46;83.60
67862;DHT22;54665;51.462;6.698;2022-12-18T09:11:32;-2.34;82.18
67862;DHT22;54665;51.462;6.698;2022-12-18T09:14:00;-2.30;82.15
67862;DHT22;54665;51.462;6.698;2022-12-18T09:16:26;-2.27;81.58
67862;DHT22;54665;51.462;6.698;2022-12-18T09:19:03;-2.22;81.56
67862;DHT22;54665;51.462;6.698;2022-12-18T09:21:32;-2.21;82.52
67862;DHT22;54665;51.462;6.698;2022-12-18T09:23:58;-2.12;81.91
67862;DHT22;54665;51.462;6.698;2022-12-18T09:26:25;-2.00;81.14
67862;DHT22;54665;51.462;6.698;2022-12-18T09:28:51;-1.83;81.07
67862;DHT22;54665;51.462;6.698;2022-12-18T09:31:19;-1.64;80.03
67862;DHT22;54665;51.462;6.698;2022-12-18T09:33:45;-1.59;79.93
67862;DHT22;54665;51.462;6.698;2022-12-18T09:36:14;-1.46;78.30
67862;DHT22;54665;51.462;6.698;2022-12-18T09:38:40;-1.36;77.79
67862;DHT22;54665;51.462;6.698;2022-12-18T09:41:44;-1.31;78.44
67862;DHT22;54665;51.462;6.698;2022-12-18T09:44:19;-1.19;77.36
67862;DHT22;54665;51.462;6.698;2022-12-18T09:47:13;-1.11;76.99
67862;DHT22;54665;51.462;6.698;2022-12-18T09:49:46;-1.05;76.40
67862;DHT22;54665;51.462;6.698;2022-12-18T09:52:25;-0.94;76.44
67862;DHT22;54665;51.462;6.698;2022-12-18T09:55:17;-0.84;76.25
67862;DHT22;54665;51.462;6.698;2022-12-18T09:57:49;-0.81;76.07
67862;DHT22;54665;51.462;6.698;2022-12-18T10:00:19;-0.76;75.67
67862;DHT22;54665;51.462;6.698;2022-12-18T10:02:46;-0.66;75.28
67862;DHT22;54665;51.462;6.698;2022-12-18T10:05:14;-0.60;74.88
67862;DHT22;54665;51.462;6.698;2022-12-18T10:10:49;-0.44;75.24
67862;DHT22;54665;51.462;6.698;2022-12-18T10:13:47;-0.36;74.18
67862;DHT22;54665;51.462;6.698;2022-12-18T10:21:48;-0.17;74.53
67862;DHT22;54665;51.462;6.698;2022-12-18T10:24:53;-0.15;73.00
67862;DHT22;54665;51.462;6.698;2022-12-18T10:27:25;-0.12;73.94
67862;DHT22;54665;51.462;6.698;2022-12-18T10:29:52;-0.06;73.04
67862;DHT22;54665;51.462;6.698;2022-12-18T10:32:20;-0.02;73.96
67862;DHT22;54665;51.462;6.698;2022-12-18T10:34:47;0.02;72.04
67862;DHT22;54665;51.462;6.698;2022-12-18T10:37:17;0.09;73.72
67862;DHT22;54665;51.462;6.698;2022-12-18T10:39:43;0.14;72.96
67862;DHT22;54665;51.462;6.698;2022-12-18T10:42:17;0.18;73.24
67862;DHT22;54665;51.462;6.698;2022-12-18T10:44:43;0.24;72.95
67862;DHT22;54665;51.462;6.698;2022-12-18T10:47:13;0.30;73.39
67862;DHT22;54665;51.462;6.698;2022-12-18T10:49:47;0.33;73.73
67862;DHT22;54665;51.462;6.698;2022-12-18T10:52:17;0.36;73.54
67862;DHT22;54665;51.462;6.698;2022-12-18T10:54:52;0.38;73.03
67862;DHT22;54665;51.462;6.698;2022-12-18T10:57:31;0.41;73.66
67862;DHT22;54665;51.462;6.698;2022-12-18T10:59:59;0.39;72.31
67862;DHT22;54665;51.462;6.698;2022-12-18T11:02:34;0.43;72.56
67862;DHT22;54665;51.462;6.698;2022-12-18T11:04:59;0.45;72.54
67862;DHT22;54665;51.462;6.698;2022-12-18T11:07:25;0.52;72.59
67862;DHT22;54665;51.462;6.698;2022-12-18T11:10:00;0.52;72.14
67862;DHT22;54665;51.462;6.698;2022-12-18T11:12:28;0.62;72.01
67862;DHT22;54665;51.462;6.698;2022-12-18T11:14:54;0.72;71.92
67862;DHT22;54665;51.462;6.698;2022-12-18T11:17:29;0.80;72.13
67862;DHT22;54665;51.462;6.698;2022-12-18T11:20:04;0.87;72.57
67862;DHT22;54665;51.462;6.698;2022-12-18T11:22:31;0.88;72.63
67862;DHT22;54665;51.462;6.698;2022-12-18T11:27:24;0.98;72.10
67862;DHT22;54665;51.462;6.698;2022-12-18T11:29:51;1.00;71.54
67862;DHT22;54665;51.462;6.698;2022-12-18T11:34:51;1.09;71.59
67862;DHT22;54665;51.462;6.698;2022-12-18T11:37:18;1.14;71.01
67862;DHT22;54665;51.462;6.698;2022-12-18T11:40:09;1.14;71.25
67862;DHT22;54665;51.462;6.698;2022-12-18T11:42:44;1.17;70.89
67862;DHT22;54665;51.462;6.698;2022-12-18T11:47:52;1.09;70.03
67862;DHT22;54665;51.462;6.698;2022-12-18T11:50:24;1.11;71.17
67862;DHT22;54665;51.462;6.698;2022-12-18T11:52:50;1.11;70.57
67862;DHT22;54665;51.462;6.698;2022-12-18T11:55:28;1.18;70.28
67862;DHT22;54665;51.462;6.698;2022-12-18T11:58:13;1.20;69.49
67862;DHT22;54665;51.462;6.698;2022-12-18T12:00:49;1.21;70.48
67862;DHT22;54665;51.462;6.698;2022-12-18T12:08:58;1.20;70.40
67862;DHT22;54665;51.462;6.698;2022-12-18T12:11:39;1.28;68.96
67862;DHT22;54665;51.462;6.698;2022-12-18T12:16:55;1.28;69.65
67862;DHT22;54665;51.462;6.698;2022-12-18T12:19:51;1.25;70.94
67862;DHT22;54665;51.462;6.698;2022-12-18T12:22:27;1.25;68.51
67862;DHT22;54665;51.462;6.698;2022-12-18T12:33:31;1.24;68.85
67862;DHT22;54665;51.462;6.698;2022-12-18T12:38:59;1.20;69.26
67862;DHT22;54665;51.462;6.698;2022-12-18T12:41:30;1.18;69.58
67862;DHT22;54665;51.462;6.698;2022-12-18T12:44:25;1.21;69.90
67862;DHT22;54665;51.462;6.698;2022-12-18T12:46:56;1.18;69.85
67862;DHT22;54665;51.462;6.698;2022-12-18T12:49:26;1.18;70.40
67862;DHT22;54665;51.462;6.698;2022-12-18T12:52:06;1.14;69.67
67862;DHT22;54665;51.462;6.698;2022-12-18T12:54:33;1.14;69.48
67862;DHT22;54665;51.462;6.698;2022-12-18T12:57:19;1.14;68.38
67862;DHT22;54665;51.462;6.698;2022-12-18T12:59:56;1.08;68.36
67862;DHT22;54665;51.462;6.698;2022-12-18T13:02:52;1.08;68.38
67862;DHT22;54665;51.462;6.698;2022-12-18T13:06:00;1.07;68.31
67862;DHT22;54665;51.462;6.698;2022-12-18T13:08:30;1.03;68.64
67862;DHT22;54665;51.462;6.698;2022-12-18T13:10:58;1.04;68.83
67862;DHT22;54665;51.462;6.698;2022-12-18T13:13:50;1.05;67.84
67862;DHT22;54665;51.462;6.698;2022-12-18T13:16:19;1.05;68.23
67862;DHT22;54665;51.462;6.698;2022-12-18T13:18:52;1.00;68.80
67862;DHT22;54665;51.462;6.698;2022-12-18T13:21:30;1.00;68.57
67862;DHT22;54665;51.462;6.698;2022-12-18T13:23:56;0.97;69.12
67862;DHT22;54665;51.462;6.698;2022-12-18T13:26:33;0.98;69.28
67862;DHT22;54665;51.462;6.698;2022-12-18T13:28:59;0.97;69.31
67862;DHT22;54665;51.462;6.698;2022-12-18T13:34:18;0.96;69.67
67862;DHT22;54665;51.462;6.698;2022-12-18T13:36:44;0.93;69.64
67862;DHT22;54665;51.462;6.698;2022-12-18T13:41:51;0.91;69.23
67862;DHT22;54665;51.462;6.698;2022-12-18T13:44:31;0.90;68.57
67862;DHT22;54665;51.462;6.698;2022-12-18T13:46:58;0.94;68.80
67862;DHT22;54665;51.462;6.698;2022-12-18T13:49:43;0.91;68.24
67862;DHT22;54665;51.462;6.698;2022-12-18T13:52:22;0.88;68.31
67862;DHT22;54665;51.462;6.698;2022-12-18T13:54:51;0.86;69.06
67862;DHT22;54665;51.462;6.698;2022-12-18T13:57:29;0.86;68.02
67862;DHT22;54665;51.462;6.698;2022-12-18T13:59:56;0.83;68.83
67862;DHT22;54665;51.462;6.698;2022-12-18T14:02:24;0.83;68.76
67862;DHT22;54665;51.462;6.698;2022-12-18T14:04:51;0.80;68.45
67862;DHT22;54665;51.462;6.698;2022-12-18T14:07:19;0.77;68.30
67862;DHT22;54665;51.462;6.698;2022-12-18T14:09:49;0.75;68.38
67862;DHT22;54665;51.462;6.698;2022-12-18T14:12:19;0.73;68.06
67862;DHT22;54665;51.462;6.698;2022-12-18T14:15:17;0.72;68.64
67862;DHT22;54665;51.462;6.698;2022-12-18T14:17:46;0.66;68.74
67862;DHT22;54665;51.462;6.698;2022-12-18T14:20:15;0.67;68.43
67862;DHT22;54665;51.462;6.698;2022-12-18T14:22:43;0.65;67.77
67862;DHT22;54665;51.462;6.698;2022-12-18T14:27:42;0.60;69.26
67862;DHT22;54665;51.462;6.698;2022-12-18T14:30:38;0.56;68.76
67862;DHT22;54665;51.462;6.698;2022-12-18T14:33:10;0.53;68.44
67862;DHT22;54665;51.462;6.698;2022-12-18T14:35:38;0.50;69.46
67862;DHT22;54665;51.462;6.698;2022-12-18T14:40:43;0.46;68.35
67862;DHT22;54665;51.462;6.698;2022-12-18T14:43:12;0.50;68.97
67862;DHT22;54665;51.462;6.698;2022-12-18T14:45:40;0.49;68.70
67862;DHT22;54665;51.462;6.698;2022-12-18T14:48:22;0.46;68.10
67862;DHT22;54665;51.462;6.698;2022-12-18T14:51:15;0.43;67.98
67862;DHT22;54665;51.462;6.698;2022-12-18T14:53:53;0.42;68.75
67862;DHT22;54665;51.462;6.698;2022-12-18T14:56:28;0.39;68.90
67862;DHT22;54665;51.462;6.698;2022-12-18T14:58:59;0.35;68.55
67862;DHT22;54665;51.462;6.698;2022-12-18T15:01:28;0.30;68.53
67862;DHT22;54665;51.462;6.698;2022-12-18T15:03:55;0.29;68.57
67862;DHT22;54665;51.462;6.698;2022-12-18T15:08:52;0.28;68.25
67862;DHT22;54665;51.462;6.698;2022-12-18T15:14:31;0.18;69.15
67862;DHT22;54665;51.462;6.698;2022-12-18T15:16:59;0.14;69.93
67862;DHT22;54665;51.462;6.698;2022-12-18T15:19:43;0.11;70.09
67862;DHT22;54665;51.462;6.698;2022-12-18T15:22:24;0.08;70.09
67862;DHT22;54665;51.462;6.698;2022-12-18T15:25:32;0.06;70.41
67862;DHT22;54665;51.462;6.698;2022-12-18T15:27:59;-0.01;70.91
67862;DHT22;54665;51.462;6.698;2022-12-18T15:30:25;-0.05;70.57
67862;DHT22;54665;51.462;6.698;2022-12-18T15:32:52;0.04;70.11
67862;DHT22;54665;51.462;6.698;2022-12-18T15:35:21;0.06;69.48
67862;DHT22;54665;51.462;6.698;2022-12-18T15:37:47;0.11;69.54
67862;DHT22;54665;51.462;6.698;2022-12-18T15:40:18;0.06;69.92
67862;DHT22;54665;51.462;6.698;2022-12-18T15:42:44;0.04;69.65
67862;DHT22;54665;51.462;6.698;2022-12-18T15:45:28;-0.01;69.92
67862;DHT22;54665;51.462;6.698;2022-12-18T15:47:54;-0.01;69.81
67862;DHT22;54665;51.462;6.698;2022-12-18T15:50:19;-0.03;69.40
67862;DHT22;54665;51.462;6.698;2022-12-18T15:52:47;-0.05;69.74
67862;DHT22;54665;51.462;6.698;2022-12-18T15:55:20;-0.05;69.58
67862;DHT22;54665;51.462;6.698;2022-12-18T15:58:04;-0.05;70.10
67862;DHT22;54665;51.462;6.698;2022-12-18T16:00:31;-0.07;70.25
67862;DHT22;54665;51.462;6.698;2022-12-18T16:02:57;-0.12;69.99
67862;DHT22;54665;51.462;6.698;2022-12-18T16:05:23;-0.17;70.24
67862;DHT22;54665;51.462;6.698;2022-12-18T16:07:49;-0.12;70.32
67862;DHT22;54665;51.462;6.698;2022-12-18T16:10:14;-0.15;70.54
67862;DHT22;54665;51.462;6.698;2022-12-18T16:12:41;-0.12;70.40
67862;DHT22;54665;51.462;6.698;2022-12-18T16:15:07;-0.15;70.57
67862;DHT22;54665;51.462;6.698;2022-12-18T16:17:32;-0.10;70.68
67862;DHT22;54665;51.462;6.698;2022-12-18T16:19:58;-0.10;70.28
67862;DHT22;54665;51.462;6.698;2022-12-18T16:22:26;-0.09;70.42
67862;DHT22;54665;51.462;6.698;2022-12-18T16:24:54;-0.07;70.59
67862;DHT22;54665;51.462;6.698;2022-12-18T16:27:20;-0.10;70.86
67862;DHT22;54665;51.462;6.698;2022-12-18T16:29:46;-0.15;71.59
67862;DHT22;54665;51.462;6.698;2022-12-18T16:32:14;-0.10;70.74
67862;DHT22;54665;51.462;6.698;2022-12-18T16:34:40;-0.15;71.23
67862;DHT22;54665;51.462;6.698;2022-12-18T16:37:08;-0.16;71.27
67862;DHT22;54665;51.462;6.698;2022-12-18T16:39:34;-0.19;71.65
67862;DHT22;54665;51.462;6.698;2022-12-18T16:42:10;-0.19;71.47
67862;DHT22;54665;51.462;6.698;2022-12-18T16:44:40;-0.22;71.88
67862;DHT22;54665;51.462;6.698;2022-12-18T16:47:05;-0.26;71.85
67862;DHT22;54665;51.462;6.698;2022-12-18T16:49:31;-0.27;72.20
67862;DHT22;54665;51.462;6.698;2022-12-18T16:51:56;-0.29;72.69
67862;DHT22;54665;51.462;6.698;2022-12-18T16:54:22;-0.29;72.41
67862;DHT22;54665;51.462;6.698;2022-12-18T16:56:47;-0.29;72.45
67862;DHT22;54665;51.462;6.698;2022-12-18T16:59:15;-0.22;72.24
67862;DHT22;54665;51.462;6.698;2022-12-18T17:01:41;-0.22;72.50